sensor_id;sensor_type;location;lat;lon;timestamp;temperature;humidity
1800;DHT22;919;48.274;12.292;2023-05-07T00:02:03;11.20;99.90
1800;DHT22;919;48.274;12.292;2023-05-07T00:04:30;11.20;99.90
1800;DHT22;919;48.274;12.292;2023-05-07T00:07:02;11.10;99.90
1800;DHT22;919;48.274;12.292;2023-05-07T00:09:29;11.00;99.90
1800;DHT22;919;48.274;12.292;2023-05-07T00:11:56;10.90;99.90
1800;DHT22;919;48.274;12.292;2023-05-07T00:14:22;10.80;99.90
1800;DHT22;919;48.274;12.292;2023-05-07T00:16:49;10.80;99.90
1800;DHT22;919;48.274;12.292;2023-05-07T00:19:16;10.80;99.90
1800;DHT22;919;48.274;12.292;2023-05-07T00:21:43;10.80;99.90
1800;DHT22;919;48.274;12.292;2023-05-07T00:24:11;10.80;99.90
1800;DHT22;919;48.274;12.292;2023-05-07T00:26:37;10.90;99.90
1800;DHT22;919;48.274;12.292;2023-05-07T00:29:04;10.90;99.90
1800;DHT22;919;48.274;12.292;2023-05-07T00:31:31;10.90;99.90
1800;DHT22;919;48.274;12.292;2023-05-07T00:33:58;10.90;99.90
1800;DHT22;919;48.274;12.292;2023-05-07T00:36:24;10.90;99.90
1800;DHT22;919;48.274;12.292;2023-05-07T00:38:51;10.90;99.90
1800;DHT22;919;48.274;12.292;2023-05-07T00:41:19;11.00;99.90
1800;DHT22;919;48.274;12.292;2023-05-07T00:43:46;10.90;99.90
1800;DHT22;919;48.274;12.292;2023-05-07T00:46:13;10.90;99.90
1800;DHT22;919;48.274;12.292;2023-05-07T00:48:41;10.90;99.90
1800;DHT22;919;48.274;12.292;2023-05-07T00:51:08;10.80;99.90
1800;DHT22;919;48.274;12.292;2023-05-07T00:53:36;10.70;99.90
1800;DHT22;919;48.274;12.292;2023-05-07T00:56:04;10.60;99.90
1800;DHT22;919;48.274;12.292;2023-05-07T00:58:33;10.50;99.90
1800;DHT22;919;48.274;12.292;2023-05-07T01:01:00;10.50;99.90
1800;DHT22;919;48.274;12.292;2023-05-07T01:03:27;10.50;99.90
1800;DHT22;919;48.274;12.292;2023-05-07T01:05:55;10.50;99.90
1800;DHT22;919;48.274;12.292;2023-05-07T01:08:24;10.60;99.90
1800;DHT22;919;48.274;12.292;2023-05-07T01:10:54;10.60;99.90
1800;DHT22;919;48.274;12.292;2023-05-07T01:13:21;10.50;99.90
1800;DHT22;919;48.274;12.292;2023-05-07T01:15:49;10.40;99.90
1800;DHT22;919;48.274;12.292;2023-05-07T01:18:16;10.30;99.90
1800;DHT22;919;48.274;12.292;2023-05-07T01:20:43;10.30;99.90
1800;DHT22;919;48.274;12.292;2023-05-07T01:23:11;10.30;99.90
1800;DHT22;919;48.274;12.292;2023-05-07T01:25:38;10.40;99.90
1800;DHT22;919;48.274;12.292;2023-05-07T01:28:05;10.50;99.90
1800;DHT22;919;48.274;12.292;2023-05-07T01:30:33;10.60;99.90
1800;DHT22;919;48.274;12.292;2023-05-07T01:33:04;10.60;99.90
1800;DHT22;919;48.274;12.292;2023-05-07T01:35:36;10.50;99.90
1800;DHT22;919;48.274;12.292;2023-05-07T01:38:04;10.60;99.90
1800;DHT22;919;48.274;12.292;2023-05-07T01:40:33;10.50;99.90
1800;DHT22;919;48.274;12.292;2023-05-07T01:43:01;10.50;99.90
1800;DHT22;919;48.274;12.292;2023-05-07T01:45:28;10.50;99.90
1800;DHT22;919;48.274;12.292;2023-05-07T01:47:56;10.60;99.90
1800;DHT22;919;48.274;12.292;2023-05-07T01:50:25;10.60;99.90
1800;DHT22;919;48.274;12.292;2023-05-07T01:52:52;10.60;99.90
1800;DHT22;919;48.274;12.292;2023-05-07T01:55:19;10.50;99.90
1800;DHT22;919;48.274;12.292;2023-05-07T01:57:47;10.60;99.90
1800;DHT22;919;48.274;12.292;2023-05-07T02:00:14;10.50;99.90
1800;DHT22;919;48.274;12.292;2023-05-07T02:02:41;10.50;99.90
1800;DHT22;919;48.274;12.292;2023-05-07T02:05:08;10.50;99.90
1800;DHT22;919;48.274;12.292;2023-05-07T02:07:35;10.50;99.90
1800;DHT22;919;48.274;12.292;2023-05-07T02:10:02;10.50;99.90
1800;DHT22;919;48.274;12.292;2023-05-07T02:12:29;10.50;99.90
1800;DHT22;919;48.274;12.292;2023-05-07T02:14:57;10.50;99.90
1800;DHT22;919;48.274;12.292;2023-05-07T02:17:24;10.40;99.90
1800;DHT22;919;48.274;12.292;2023-05-07T02:19:51;10.40;99.90
1800;DHT22;919;48.274;12.292;2023-05-07T02:22:17;10.40;99.90
1800;DHT22;919;48.274;12.292;2023-05-07T02:24:44;10.40;99.90
1800;DHT22;919;48.274;12.292;2023-05-07T02:27:11;10.40;99.90
1800;DHT22;919;48.274;12.292;2023-05-07T02:29:38;10.40;99.90
1800;DHT22;919;48.274;12.292;2023-05-07T02:32:06;10.40;99.90
1800;DHT22;919;48.274;12.292;2023-05-07T02:34:32;10.30;99.90
1800;DHT22;919;48.274;12.292;2023-05-07T02:36:59;10.30;99.90
1800;DHT22;919;48.274;12.292;2023-05-07T02:39:26;10.20;99.90
1800;DHT22;919;48.274;12.292;2023-05-07T02:41:52;10.20;99.90
1800;DHT22;919;48.274;12.292;2023-05-07T02:44:19;10.10;99.90
1800;DHT22;919;48.274;12.292;2023-05-07T02:46:46;10.10;99.90
1800;DHT22;919;48.274;12.292;2023-05-07T02:49:14;10.00;99.90
1800;DHT22;919;48.274;12.292;2023-05-07T02:51:41;10.00;99.90
1800;DHT22;919;48.274;12.292;2023-05-07T02:54:07;10.00;99.90
1800;DHT22;919;48.274;12.292;2023-05-07T02:56:34;10.10;99.90
1800;DHT22;919;48.274;12.292;2023-05-07T02:59:01;10.10;99.90
1800;DHT22;919;48.274;12.292;2023-05-07T03:01:27;10.10;99.90
1800;DHT22;919;48.274;12.292;2023-05-07T03:03:54;10.00;99.90
1800;DHT22;919;48.274;12.292;2023-05-07T03:06:23;9.80;99.90
1800;DHT22;919;48.274;12.292;2023-05-07T03:08:50;9.80;99.90
1800;DHT22;919;48.274;12.292;2023-05-07T03:11:16;9.70;99.90
1800;DHT22;919;48.274;12.292;2023-05-07T03:13:43;9.80;99.90
1800;DHT22;919;48.274;12.292;2023-05-07T03:16:11;9.90;99.90
1800;DHT22;919;48.274;12.292;2023-05-07T03:18:38;9.90;99.90
1800;DHT22;919;48.274;12.292;2023-05-07T03:21:05;10.00;99.90
1800;DHT22;919;48.274;12.292;2023-05-07T03:23:33;10.00;99.90
1800;DHT22;919;48.274;12.292;2023-05-07T03:25:59;10.00;99.90
1800;DHT22;919;48.274;12.292;2023-05-07T03:28:26;10.00;99.90
1800;DHT22;919;48.274;12.292;2023-05-07T03:30:53;10.00;99.90
1800;DHT22;919;48.274;12.292;2023-05-07T03:33:19;10.00;99.90
1800;DHT22;919;48.274;12.292;2023-05-07T03:35:46;9.90;99.90
1800;DHT22;919;48.274;12.292;2023-05-07T03:38:13;9.90;99.90
1800;DHT22;919;48.274;12.292;2023-05-07T03:40:41;10.00;99.90
1800;DHT22;919;48.274;12.292;2023-05-07T03:43:08;10.00;99.90
1800;DHT22;919;48.274;12.292;2023-05-07T03:45:35;9.90;99.90
1800;DHT22;919;48.274;12.292;2023-05-07T03:48:02;9.90;99.90
1800;DHT22;919;48.274;12.292;2023-05-07T03:50:28;10.00;99.90
1800;DHT22;919;48.274;12.292;2023-05-07T03:52:55;10.00;99.90
1800;DHT22;919;48.274;12.292;2023-05-07T03:55:22;10.00;99.90
1800;DHT22;919;48.274;12.292;2023-05-07T03:57:50;10.10;99.90
1800;DHT22;919;48.274;12.292;2023-05-07T04:00:17;10.10;99.90
1800;DHT22;919;48.274;12.292;2023-05-07T04:02:45;10.10;99.90
1800;DHT22;919;48.274;12.292;2023-05-07T04:05:13;10.10;99.90
1800;DHT22;919;48.274;12.292;2023-05-07T04:07:40;10.00;99.90
1800;DHT22;919;48.274;12.292;2023-05-07T04:10:07;10.00;99.90
1800;DHT22;919;48.274;12.292;2023-05-07T04:12:34;10.10;99.90
1800;DHT22;919;48.274;12.292;2023-05-07T04:15:02;10.10;99.90
1800;DHT22;919;48.274;12.292;2023-05-07T04:17:29;10.00;99.90
1800;DHT22;919;48.274;12.292;2023-05-07T04:19:56;10.00;99.90
1800;DHT22;919;48.274;12.292;2023-05-07T04:22:23;9.90;99.90
1800;DHT22;919;48.274;12.292;2023-05-07T04:24:49;9.90;99.90
1800;DHT22;919;48.274;12.292;2023-05-07T04:27:16;9.90;99.90
1800;DHT22;919;48.274;12.292;2023-05-07T04:29:43;10.10;99.90
1800;DHT22;919;48.274;12.292;2023-05-07T04:32:13;10.10;99.90
1800;DHT22;919;48.274;12.292;2023-05-07T04:34:40;10.10;99.90
1800;DHT22;919;48.274;12.292;2023-05-07T04:37:07;10.10;99.90
1800;DHT22;919;48.274;12.292;2023-05-07T04:39:33;10.10;99.90
1800;DHT22;919;48.274;12.292;2023-05-07T04:42:00;10.20;99.90
1800;DHT22;919;48.274;12.292;2023-05-07T04:44:28;10.30;99.90
1800;DHT22;919;48.274;12.292;2023-05-07T04:46:56;10.30;99.90
1800;DHT22;919;48.274;12.292;2023-05-07T04:49:24;10.30;99.90
1800;DHT22;919;48.274;12.292;2023-05-07T04:51:51;10.40;99.90
1800;DHT22;919;48.274;12.292;2023-05-07T04:54:18;10.40;99.90
1800;DHT22;919;48.274;12.292;2023-05-07T04:56:44;10.40;99.90
1800;DHT22;919;48.274;12.292;2023-05-07T04:59:11;10.50;99.90
1800;DHT22;919;48.274;12.292;2023-05-07T05:01:38;10.60;99.90
1800;DHT22;919;48.274;12.292;2023-05-07T05:04:05;10.80;99.90
1800;DHT22;919;48.274;12.292;2023-05-07T05:06:33;10.80;99.90
1800;DHT22;919;48.274;12.292;2023-05-07T05:09:00;10.90;99.90
1800;DHT22;919;48.274;12.292;2023-05-07T05:11:27;11.00;99.90
1800;DHT22;919;48.274;12.292;2023-05-07T05:13:53;11.10;99.90
1800;DHT22;919;48.274;12.292;2023-05-07T05:16:20;11.20;99.90
1800;DHT22;919;48.274;12.292;2023-05-07T05:18:47;11.30;99.90
1800;DHT22;919;48.274;12.292;2023-05-07T05:21:14;11.50;99.90
1800;DHT22;919;48.274;12.292;2023-05-07T05:23:42;11.70;99.90
1800;DHT22;919;48.274;12.292;2023-05-07T05:26:08;11.80;99.90
1800;DHT22;919;48.274;12.292;2023-05-07T05:28:35;12.00;99.90
1800;DHT22;919;48.274;12.292;2023-05-07T05:31:02;12.20;99.90
1800;DHT22;919;48.274;12.292;2023-05-07T05:33:29;12.40;99.90
1800;DHT22;919;48.274;12.292;2023-05-07T05:35:55;12.50;99.90
1800;DHT22;919;48.274;12.292;2023-05-07T05:38:22;12.70;99.90
1800;DHT22;919;48.274;12.292;2023-05-07T05:40:50;12.80;99.90
1800;DHT22;919;48.274;12.292;2023-05-07T05:43:17;13.00;99.90
1800;DHT22;919;48.274;12.292;2023-05-07T05:45:43;13.10;99.90
1800;DHT22;919;48.274;12.292;2023-05-07T05:48:10;13.20;99.90
1800;DHT22;919;48.274;12.292;2023-05-07T05:50:37;13.30;99.90
1800;DHT22;919;48.274;12.292;2023-05-07T05:53:04;13.40;99.90
1800;DHT22;919;48.274;12.292;2023-05-07T05:55:30;13.50;99.90
1800;DHT22;919;48.274;12.292;2023-05-07T05:58:00;13.60;99.90
1800;DHT22;919;48.274;12.292;2023-05-07T06:00:27;13.70;99.90
1800;DHT22;919;48.274;12.292;2023-05-07T06:02:54;13.80;99.90
1800;DHT22;919;48.274;12.292;2023-05-07T06:05:21;13.90;99.90
1800;DHT22;919;48.274;12.292;2023-05-07T06:07:47;14.00;99.90
1800;DHT22;919;48.274;12.292;2023-05-07T06:10:14;14.10;99.90
1800;DHT22;919;48.274;12.292;2023-05-07T06:12:41;14.10;99.90
1800;DHT22;919;48.274;12.292;2023-05-07T06:15:10;14.20;99.90
1800;DHT22;919;48.274;12.292;2023-05-07T06:17:37;14.20;99.90
1800;DHT22;919;48.274;12.292;2023-05-07T06:20:07;14.30;99.90
1800;DHT22;919;48.274;12.292;2023-05-07T06:22:34;14.40;99.90
1800;DHT22;919;48.274;12.292;2023-05-07T06:25:01;14.40;99.90
1800;DHT22;919;48.274;12.292;2023-05-07T06:27:28;14.50;99.90
1800;DHT22;919;48.274;12.292;2023-05-07T06:29:54;14.50;99.90
1800;DHT22;919;48.274;12.292;2023-05-07T06:32:23;14.60;99.90
1800;DHT22;919;48.274;12.292;2023-05-07T06:34:49;14.70;99.90
1800;DHT22;919;48.274;12.292;2023-05-07T06:37:16;14.80;99.90
1800;DHT22;919;48.274;12.292;2023-05-07T06:39:43;14.80;99.90
1800;DHT22;919;48.274;12.292;2023-05-07T06:42:10;14.90;99.90
1800;DHT22;919;48.274;12.292;2023-05-07T06:44:36;15.00;99.90
1800;DHT22;919;48.274;12.292;2023-05-07T06:47:03;15.10;99.90
1800;DHT22;919;48.274;12.292;2023-05-07T06:49:32;15.20;99.90
1800;DHT22;919;48.274;12.292;2023-05-07T06:51:58;15.30;99.90
1800;DHT22;919;48.274;12.292;2023-05-07T06:54:25;15.40;99.90
1800;DHT22;919;48.274;12.292;2023-05-07T06:56:52;15.50;99.90
1800;DHT22;919;48.274;12.292;2023-05-07T06:59:19;15.60;99.90
1800;DHT22;919;48.274;12.292;2023-05-07T07:01:45;15.70;99.90
1800;DHT22;919;48.274;12.292;2023-05-07T07:04:12;15.80;99.90
1800;DHT22;919;48.274;12.292;2023-05-07T07:06:40;15.80;99.90
1800;DHT22;919;48.274;12.292;2023-05-07T07:09:07;15.90;99.90
1800;DHT22;919;48.274;12.292;2023-05-07T07:11:34;16.00;99.90
1800;DHT22;919;48.274;12.292;2023-05-07T07:14:01;16.10;99.90
1800;DHT22;919;48.274;12.292;2023-05-07T07:16:27;16.10;99.90
1800;DHT22;919;48.274;12.292;2023-05-07T07:18:54;16.20;99.90
1800;DHT22;919;48.274;12.292;2023-05-07T07:21:21;16.20;99.90
1800;DHT22;919;48.274;12.292;2023-05-07T07:23:49;16.20;99.90
1800;DHT22;919;48.274;12.292;2023-05-07T07:26:15;16.30;99.90
1800;DHT22;919;48.274;12.292;2023-05-07T07:28:43;16.40;99.90
1800;DHT22;919;48.274;12.292;2023-05-07T07:31:10;16.50;99.90
1800;DHT22;919;48.274;12.292;2023-05-07T07:33:37;16.60;99.90
1800;DHT22;919;48.274;12.292;2023-05-07T07:36:05;16.70;99.90
1800;DHT22;919;48.274;12.292;2023-05-07T07:38:32;16.80;99.90
1800;DHT22;919;48.274;12.292;2023-05-07T07:41:01;16.90;99.90
1800;DHT22;919;48.274;12.292;2023-05-07T07:43:28;17.00;99.90
1800;DHT22;919;48.274;12.292;2023-05-07T07:45:55;17.10;99.90
1800;DHT22;919;48.274;12.292;2023-05-07T07:48:22;17.30;99.90
1800;DHT22;919;48.274;12.292;2023-05-07T07:50:49;17.50;99.90
1800;DHT22;919;48.274;12.292;2023-05-07T07:53:16;17.60;99.90
1800;DHT22;919;48.274;12.292;2023-05-07T07:55:43;17.60;99.90
1800;DHT22;919;48.274;12.292;2023-05-07T07:58:11;17.60;99.90
1800;DHT22;919;48.274;12.292;2023-05-07T08:00:38;17.60;99.90
1800;DHT22;919;48.274;12.292;2023-05-07T08:03:04;17.60;99.90
1800;DHT22;919;48.274;12.292;2023-05-07T08:05:32;17.60;99.90
1800;DHT22;919;48.274;12.292;2023-05-07T08:07:59;17.70;99.90
1800;DHT22;919;48.274;12.292;2023-05-07T08:10:26;17.70;99.90
1800;DHT22;919;48.274;12.292;2023-05-07T08:12:52;17.70;99.90
1800;DHT22;919;48.274;12.292;2023-05-07T08:15:21;17.80;99.90
1800;DHT22;919;48.274;12.292;2023-05-07T08:17:47;18.00;99.90
1800;DHT22;919;48.274;12.292;2023-05-07T08:20:14;18.10;99.90
1800;DHT22;919;48.274;12.292;2023-05-07T08:22:41;18.20;99.90
1800;DHT22;919;48.274;12.292;2023-05-07T08:25:08;18.20;99.90
1800;DHT22;919;48.274;12.292;2023-05-07T08:27:35;18.30;99.90
1800;DHT22;919;48.274;12.292;2023-05-07T08:30:02;18.40;99.90
1800;DHT22;919;48.274;12.292;2023-05-07T08:32:31;18.50;99.90
1800;DHT22;919;48.274;12.292;2023-05-07T08:34:57;18.60;99.90
1800;DHT22;919;48.274;12.292;2023-05-07T08:37:24;18.60;99.90
1800;DHT22;919;48.274;12.292;2023-05-07T08:39:51;18.60;99.90
1800;DHT22;919;48.274;12.292;2023-05-07T08:42:18;18.80;99.90
1800;DHT22;919;48.274;12.292;2023-05-07T08:44:47;18.90;99.90
1800;DHT22;919;48.274;12.292;2023-05-07T08:47:15;19.00;99.90
1800;DHT22;919;48.274;12.292;2023-05-07T08:49:44;19.10;99.90
1800;DHT22;919;48.274;12.292;2023-05-07T08:52:12;19.10;99.90
1800;DHT22;919;48.274;12.292;2023-05-07T08:54:38;19.20;99.90
1800;DHT22;919;48.274;12.292;2023-05-07T08:57:05;19.30;99.90
1800;DHT22;919;48.274;12.292;2023-05-07T08:59:32;19.50;99.90
1800;DHT22;919;48.274;12.292;2023-05-07T09:01:59;19.80;99.90
1800;DHT22;919;48.274;12.292;2023-05-07T09:04:26;19.80;99.90
1800;DHT22;919;48.274;12.292;2023-05-07T09:06:55;19.80;99.90
1800;DHT22;919;48.274;12.292;2023-05-07T09:09:22;19.90;99.90
1800;DHT22;919;48.274;12.292;2023-05-07T09:11:48;20.00;99.90
1800;DHT22;919;48.274;12.292;2023-05-07T09:14:24;20.10;99.90
1800;DHT22;919;48.274;12.292;2023-05-07T09:16:52;20.10;99.90
1800;DHT22;919;48.274;12.292;2023-05-07T09:19:22;19.90;99.90
1800;DHT22;919;48.274;12.292;2023-05-07T09:21:49;19.80;99.90
1800;DHT22;919;48.274;12.292;2023-05-07T09:24:17;19.90;99.90
1800;DHT22;919;48.274;12.292;2023-05-07T09:26:44;20.10;99.90
1800;DHT22;919;48.274;12.292;2023-05-07T09:29:11;20.30;99.90
1800;DHT22;919;48.274;12.292;2023-05-07T09:31:37;20.50;99.90
1800;DHT22;919;48.274;12.292;2023-05-07T09:34:04;20.60;99.90
1800;DHT22;919;48.274;12.292;2023-05-07T09:36:32;20.90;99.90
1800;DHT22;919;48.274;12.292;2023-05-07T09:38:59;21.00;99.90
1800;DHT22;919;48.274;12.292;2023-05-07T09:41:30;21.00;99.90
1800;DHT22;919;48.274;12.292;2023-05-07T09:43:58;21.20;99.90
1800;DHT22;919;48.274;12.292;2023-05-07T09:46:28;21.30;99.90
1800;DHT22;919;48.274;12.292;2023-05-07T09:48:57;21.30;99.90
1800;DHT22;919;48.274;12.292;2023-05-07T09:51:28;21.30;99.90
1800;DHT22;919;48.274;12.292;2023-05-07T09:53:56;21.30;99.90
1800;DHT22;919;48.274;12.292;2023-05-07T09:56:25;21.30;99.90
1800;DHT22;919;48.274;12.292;2023-05-07T09:58:54;21.30;99.90
1800;DHT22;919;48.274;12.292;2023-05-07T10:01:23;21.50;99.90
1800;DHT22;919;48.274;12.292;2023-05-07T10:03:52;21.80;99.90
1800;DHT22;919;48.274;12.292;2023-05-07T10:06:20;21.90;99.90
1800;DHT22;919;48.274;12.292;2023-05-07T10:08:46;21.90;99.90
1800;DHT22;919;48.274;12.292;2023-05-07T10:11:15;22.00;99.90
1800;DHT22;919;48.274;12.292;2023-05-07T10:13:43;22.00;99.90
1800;DHT22;919;48.274;12.292;2023-05-07T10:16:11;21.90;99.90
1800;DHT22;919;48.274;12.292;2023-05-07T10:18:38;22.10;99.90
1800;DHT22;919;48.274;12.292;2023-05-07T10:21:08;22.40;99.90
1800;DHT22;919;48.274;12.292;2023-05-07T10:23:35;22.70;99.90
1800;DHT22;919;48.274;12.292;2023-05-07T10:26:04;22.90;99.90
1800;DHT22;919;48.274;12.292;2023-05-07T10:28:35;22.90;99.90
1800;DHT22;919;48.274;12.292;2023-05-07T10:31:29;23.00;99.90
1800;DHT22;919;48.274;12.292;2023-05-07T10:34:01;23.20;99.90
1800;DHT22;919;48.274;12.292;2023-05-07T10:36:29;23.10;99.90
1800;DHT22;919;48.274;12.292;2023-05-07T10:38:56;23.10;99.90
1800;DHT22;919;48.274;12.292;2023-05-07T10:41:23;23.10;99.90
1800;DHT22;919;48.274;12.292;2023-05-07T10:43:49;22.80;99.90
1800;DHT22;919;48.274;12.292;2023-05-07T10:46:18;22.90;99.90
1800;DHT22;919;48.274;12.292;2023-05-07T10:49:08;22.80;99.90
1800;DHT22;919;48.274;12.292;2023-05-07T10:51:37;22.70;99.90
1800;DHT22;919;48.274;12.292;2023-05-07T10:54:20;22.30;99.90
1800;DHT22;919;48.274;12.292;2023-05-07T10:56:47;21.80;99.90
1800;DHT22;919;48.274;12.292;2023-05-07T10:59:35;21.40;99.90
1800;DHT22;919;48.274;12.292;2023-05-07T11:02:07;20.80;99.90
1800;DHT22;919;48.274;12.292;2023-05-07T11:04:37;20.70;99.90
1800;DHT22;919;48.274;12.292;2023-05-07T11:07:31;20.80;99.90
1800;DHT22;919;48.274;12.292;2023-05-07T11:10:03;21.10;99.90
1800;DHT22;919;48.274;12.292;2023-05-07T11:12:53;21.30;99.90
1800;DHT22;919;48.274;12.292;2023-05-07T11:18:10;22.10;99.90
1800;DHT22;919;48.274;12.292;2023-05-07T11:20:52;22.30;99.90
1800;DHT22;919;48.274;12.292;2023-05-07T11:26:46;22.80;99.90
1800;DHT22;919;48.274;12.292;2023-05-07T11:29:14;22.70;99.90
1800;DHT22;919;48.274;12.292;2023-05-07T11:31:42;22.50;99.90
1800;DHT22;919;48.274;12.292;2023-05-07T11:34:09;22.40;99.90
1800;DHT22;919;48.274;12.292;2023-05-07T11:36:43;22.50;99.90
1800;DHT22;919;48.274;12.292;2023-05-07T11:39:28;22.50;99.90
1800;DHT22;919;48.274;12.292;2023-05-07T11:41:57;22.70;99.90
1800;DHT22;919;48.274;12.292;2023-05-07T11:44:24;22.90;99.90
1800;DHT22;919;48.274;12.292;2023-05-07T11:46:54;23.30;99.90
1800;DHT22;919;48.274;12.292;2023-05-07T11:49:25;23.80;99.90
1800;DHT22;919;48.274;12.292;2023-05-07T11:51:59;23.60;99.90
1800;DHT22;919;48.274;12.292;2023-05-07T11:54:35;23.40;99.90
1800;DHT22;919;48.274;12.292;2023-05-07T11:57:02;23.60;99.90
1800;DHT22;919;48.274;12.292;2023-05-07T11:59:38;23.20;99.90
1800;DHT22;919;48.274;12.292;2023-05-07T12:02:06;23.40;99.90
1800;DHT22;919;48.274;12.292;2023-05-07T12:04:33;23.10;99.90
1800;DHT22;919;48.274;12.292;2023-05-07T12:07:01;23.30;99.90
1800;DHT22;919;48.274;12.292;2023-05-07T12:09:28;23.40;99.90
1800;DHT22;919;48.274;12.292;2023-05-07T12:11:56;23.60;99.90
1800;DHT22;919;48.274;12.292;2023-05-07T12:14:28;23.90;99.90
1800;DHT22;919;48.274;12.292;2023-05-07T12:16:56;24.30;99.90
1800;DHT22;919;48.274;12.292;2023-05-07T12:19:25;24.20;99.90
1800;DHT22;919;48.274;12.292;2023-05-07T12:21:52;24.30;99.90
1800;DHT22;919;48.274;12.292;2023-05-07T12:24:20;24.30;99.90
1800;DHT22;919;48.274;12.292;2023-05-07T12:26:48;23.80;99.90
1800;DHT22;919;48.274;12.292;2023-05-07T12:29:16;23.50;99.90
1800;DHT22;919;48.274;12.292;2023-05-07T12:31:44;23.80;99.90
1800;DHT22;919;48.274;12.292;2023-05-07T12:34:11;24.10;99.90
1800;DHT22;919;48.274;12.292;2023-05-07T12:36:39;24.20;99.90
1800;DHT22;919;48.274;12.292;2023-05-07T12:39:06;24.50;99.90
1800;DHT22;919;48.274;12.292;2023-05-07T12:41:52;24.50;99.90
1800;DHT22;919;48.274;12.292;2023-05-07T12:44:22;24.50;99.90
1800;DHT22;919;48.274;12.292;2023-05-07T12:46:49;24.40;99.90
1800;DHT22;919;48.274;12.292;2023-05-07T12:49:16;24.30;99.90
1800;DHT22;919;48.274;12.292;2023-05-07T12:51:44;24.30;99.90
1800;DHT22;919;48.274;12.292;2023-05-07T12:54:14;24.30;99.90
1800;DHT22;919;48.274;12.292;2023-05-07T12:56:42;24.40;99.90
1800;DHT22;919;48.274;12.292;2023-05-07T12:59:09;23.90;99.90
1800;DHT22;919;48.274;12.292;2023-05-07T13:01:36;23.50;99.90
1800;DHT22;919;48.274;12.292;2023-05-07T13:04:03;23.20;99.90
1800;DHT22;919;48.274;12.292;2023-05-07T13:06:34;23.10;99.90
1800;DHT22;919;48.274;12.292;2023-05-07T13:09:02;22.90;99.90
1800;DHT22;919;48.274;12.292;2023-05-07T13:11:29;23.10;99.90
1800;DHT22;919;48.274;12.292;2023-05-07T13:13:57;23.20;99.90
1800;DHT22;919;48.274;12.292;2023-05-07T13:16:23;23.40;99.90
1800;DHT22;919;48.274;12.292;2023-05-07T13:18:50;23.50;99.90
1800;DHT22;919;48.274;12.292;2023-05-07T13:21:17;23.50;99.90
1800;DHT22;919;48.274;12.292;2023-05-07T13:23:43;23.40;99.90
1800;DHT22;919;48.274;12.292;2023-05-07T13:26:10;23.00;99.90
1800;DHT22;919;48.274;12.292;2023-05-07T13:28:37;22.70;99.90
1800;DHT22;919;48.274;12.292;2023-05-07T13:31:05;22.50;99.90
1800;DHT22;919;48.274;12.292;2023-05-07T13:33:32;22.50;99.90
1800;DHT22;919;48.274;12.292;2023-05-07T13:35:58;22.60;99.90
1800;DHT22;919;48.274;12.292;2023-05-07T13:38:26;22.70;99.90
1800;DHT22;919;48.274;12.292;2023-05-07T13:40:53;22.80;99.90
1800;DHT22;919;48.274;12.292;2023-05-07T13:43:19;22.90;99.90
1800;DHT22;919;48.274;12.292;2023-05-07T13:45:46;23.10;99.90
1800;DHT22;919;48.274;12.292;2023-05-07T13:48:15;23.10;99.90
1800;DHT22;919;48.274;12.292;2023-05-07T13:50:42;23.00;99.90
1800;DHT22;919;48.274;12.292;2023-05-07T13:53:10;22.80;99.90
1800;DHT22;919;48.274;12.292;2023-05-07T13:55:37;22.80;99.90
1800;DHT22;919;48.274;12.292;2023-05-07T13:58:05;22.90;99.90
1800;DHT22;919;48.274;12.292;2023-05-07T14:00:33;23.00;99.90
1800;DHT22;919;48.274;12.292;2023-05-07T14:03:00;23.30;99.90
1800;DHT22;919;48.274;12.292;2023-05-07T14:05:28;23.30;99.90
1800;DHT22;919;48.274;12.292;2023-05-07T14:07:57;23.50;99.90
1800;DHT22;919;48.274;12.292;2023-05-07T14:10:24;23.60;99.90
1800;DHT22;919;48.274;12.292;2023-05-07T14:12:51;23.90;99.90
1800;DHT22;919;48.274;12.292;2023-05-07T14:15:18;23.60;99.90
1800;DHT22;919;48.274;12.292;2023-05-07T14:17:45;23.70;99.90
1800;DHT22;919;48.274;12.292;2023-05-07T14:20:12;23.30;99.90
1800;DHT22;919;48.274;12.292;2023-05-07T14:22:45;23.10;99.90
1800;DHT22;919;48.274;12.292;2023-05-07T14:25:18;23.10;99.90
1800;DHT22;919;48.274;12.292;2023-05-07T14:27:45;23.00;99.90
1800;DHT22;919;48.274;12.292;2023-05-07T14:30:12;22.90;99.90
1800;DHT22;919;48.274;12.292;2023-05-07T14:32:39;22.60;99.90
1800;DHT22;919;48.274;12.292;2023-05-07T14:35:07;22.40;99.90
1800;DHT22;919;48.274;12.292;2023-05-07T14:37:34;22.30;99.90
1800;DHT22;919;48.274;12.292;2023-05-07T14:40:02;22.30;99.90
1800;DHT22;919;48.274;12.292;2023-05-07T14:42:29;22.30;99.90
1800;DHT22;919;48.274;12.292;2023-05-07T14:44:55;22.30;99.90
1800;DHT22;919;48.274;12.292;2023-05-07T14:47:22;22.20;99.90
1800;DHT22;919;48.274;12.292;2023-05-07T14:49:49;22.00;99.90
1800;DHT22;919;48.274;12.292;2023-05-07T14:52:15;22.00;99.90
1800;DHT22;919;48.274;12.292;2023-05-07T14:54:42;21.90;99.90
1800;DHT22;919;48.274;12.292;2023-05-07T14:57:10;22.00;99.90
1800;DHT22;919;48.274;12.292;2023-05-07T14:59:38;22.00;99.90
1800;DHT22;919;48.274;12.292;2023-05-07T15:02:05;22.10;99.90
1800;DHT22;919;48.274;12.292;2023-05-07T15:04:33;22.20;99.90
1800;DHT22;919;48.274;12.292;2023-05-07T15:07:00;22.30;99.90
1800;DHT22;919;48.274;12.292;2023-05-07T15:09:26;22.50;99.90
1800;DHT22;919;48.274;12.292;2023-05-07T15:11:53;22.50;99.90
1800;DHT22;919;48.274;12.292;2023-05-07T15:14:21;22.50;99.90
1800;DHT22;919;48.274;12.292;2023-05-07T15:16:48;22.40;99.90
1800;DHT22;919;48.274;12.292;2023-05-07T15:19:15;22.40;99.90
1800;DHT22;919;48.274;12.292;2023-05-07T15:21:42;22.50;99.90
1800;DHT22;919;48.274;12.292;2023-05-07T15:24:08;22.50;99.90
1800;DHT22;919;48.274;12.292;2023-05-07T15:26:35;22.40;99.90
1800;DHT22;919;48.274;12.292;2023-05-07T15:29:02;22.40;99.90
1800;DHT22;919;48.274;12.292;2023-05-07T15:31:34;22.40;99.90
1800;DHT22;919;48.274;12.292;2023-05-07T15:34:02;22.40;99.90
1800;DHT22;919;48.274;12.292;2023-05-07T15:36:29;22.20;99.90
1800;DHT22;919;48.274;12.292;2023-05-07T15:38:56;22.10;99.90
1800;DHT22;919;48.274;12.292;2023-05-07T15:41:24;22.20;99.90
1800;DHT22;919;48.274;12.292;2023-05-07T15:43:52;22.30;99.90
1800;DHT22;919;48.274;12.292;2023-05-07T15:46:20;22.30;99.90
1800;DHT22;919;48.274;12.292;2023-05-07T15:48:50;22.20;99.90
1800;DHT22;919;48.274;12.292;2023-05-07T15:51:17;22.20;99.90
1800;DHT22;919;48.274;12.292;2023-05-07T15:53:44;22.20;99.90
1800;DHT22;919;48.274;12.292;2023-05-07T15:56:11;22.00;99.90
1800;DHT22;919;48.274;12.292;2023-05-07T15:58:37;21.80;99.90
1800;DHT22;919;48.274;12.292;2023-05-07T16:01:04;21.60;99.90
1800;DHT22;919;48.274;12.292;2023-05-07T16:03:31;21.50;99.90
1800;DHT22;919;48.274;12.292;2023-05-07T16:05:59;21.30;99.90
1800;DHT22;919;48.274;12.292;2023-05-07T16:08:27;21.30;99.90
1800;DHT22;919;48.274;12.292;2023-05-07T16:10:54;21.20;99.90
1800;DHT22;919;48.274;12.292;2023-05-07T16:13:20;21.00;99.90